Time;durP1;ratioP1;P1;durP2;ratioP2;P2;SDS_P1;SDS_P2;PMS_P1;PMS_P2;Temp;Humidity;BMP_temperature;BMP_pressure;BME280_temperature;BME280_humidity;BME280_pressure;Samples;Min_cycle;Max_cycle;Signal;HPM_P1;HPM_P2
2022/11/09 05:38:20;;;;;;;5.93;3.70;;;;;;;13.94;nan;99165.72;5007188;24;20243;-93
2022/11/09 05:41:21;;;;;;;3.35;3.05;;;;;;;13.93;nan;99166.69;4787462;29;20213;-91
2022/11/09 05:43:50;;;;;;;4.20;3.35;;;;;;;13.93;nan;99161.41;4771920;29;20222;-91
2022/11/09 05:46:25;;;;;;;4.85;3.80;;;;;;;13.94;nan;99162.25;4788106;29;20533;-90
2022/11/09 05:49:11;;;;;;;5.72;4.43;;;;;;;13.94;nan;99163.06;4787014;29;20208;-91
2022/11/09 05:52:02;;;;;;;6.88;5.90;;;;;;;13.95;nan;99169.19;4786894;29;20743;-90
2022/11/09 05:55:25;;;;;;;7.25;5.40;;;;;;;13.94;nan;99171.00;4785074;29;20244;-90
2022/11/09 05:57:51;;;;;;;5.90;4.90;;;;;;;13.94;nan;99175.44;4782970;29;20308;-88
2022/11/09 06:00:16;;;;;;;6.73;5.00;;;;;;;13.93;nan;99177.25;4775530;29;20295;-89
2022/11/09 06:02:44;;;;;;;5.50;4.90;;;;;;;13.92;nan;99169.44;4783651;29;20241;-89
2022/11/09 06:05:15;;;;;;;5.50;4.25;;;;;;;13.93;nan;99173.75;4782966;29;20986;-88
2022/11/09 06:07:41;;;;;;;7.38;5.18;;;;;;;13.91;nan;99175.72;4788160;29;20475;-90
2022/11/09 06:10:10;;;;;;;6.07;4.33;;;;;;;13.91;nan;99191.56;4771624;29;20228;-89
2022/11/09 06:12:36;;;;;;;7.82;6.05;;;;;;;13.91;nan;99199.47;4789726;29;20958;-90
2022/11/09 06:15:01;;;;;;;4.60;3.90;;;;;;;13.90;nan;99190.69;4782862;29;20225;-89
2022/11/09 06:17:27;;;;;;;3.53;3.23;;;;;;;13.91;nan;99195.03;4792129;29;20618;-89
2022/11/09 06:19:53;;;;;;;2.63;2.40;;;;;;;13.91;nan;99188.91;4790841;29;20591;-88
2022/11/09 06:22:21;;;;;;;3.40;3.10;;;;;;;13.92;nan;99191.41;4789213;29;20976;-89
2022/11/09 06:24:48;;;;;;;4.05;3.60;;;;;;;13.93;nan;99205.44;4777694;29;20240;-90
2022/11/09 06:27:14;;;;;;;5.05;3.38;;;;;;;13.94;nan;99199.22;4786033;29;20286;-89
2022/11/09 06:29:40;;;;;;;4.40;3.20;;;;;;;13.95;nan;99204.34;4786711;29;20222;-89
2022/11/09 06:32:05;;;;;;;5.97;3.10;;;;;;;13.95;nan;99199.06;4789313;29;20316;-88
2022/11/09 06:34:31;;;;;;;5.13;3.40;;;;;;;13.95;nan;99207.00;4775446;29;20240;-89
2022/11/09 06:36:56;;;;;;;2.97;2.27;;;;;;;13.96;nan;99202.56;4773740;29;20249;-89
2022/11/09 06:39:22;;;;;;;3.03;2.30;;;;;;;13.98;nan;99200.63;4789893;29;20381;-90
2022/11/09 06:41:52;;;;;;;2.70;2.50;;;;;;;14.03;nan;99214.25;4790095;29;20218;-91
2022/11/09 06:44:17;;;;;;;2.35;2.00;;;;;;;14.08;nan;99216.53;4787189;29;20229;-92
2022/11/09 06:46:43;;;;;;;2.60;1.80;;;;;;;14.14;nan;99223.94;4789037;29;20222;-91
2022/11/09 06:49:10;;;;;;;4.03;2.40;;;;;;;14.17;nan;99236.88;4772555;29;20228;-92
2022/11/09 06:51:35;;;;;;;3.08;2.78;;;;;;;14.20;nan;99256.91;4789846;29;21039;-94
2022/11/09 06:54:01;;;;;;;4.00;2.50;;;;;;;14.22;nan;99261.09;4791156;29;20238;-94
2022/11/09 06:56:32;;;;;;;2.42;2.22;;;;;;;14.23;nan;99268.06;4790459;29;20455;-91
2022/11/09 06:58:58;;;;;;;5.38;3.85;;;;;;;14.22;nan;99271.66;4792147;29;20218;-93
2022/11/09 07:01:27;;;;;;;4.17;3.87;;;;;;;14.16;nan;99278.31;4776475;29;20222;-93
2022/11/09 07:03:53;;;;;;;4.97;4.50;;;;;;;14.14;nan;99279.41;4790513;29;20312;-93
2022/11/09 07:06:18;;;;;;;5.70;5.20;;;;;;;14.09;nan;99285.06;4788946;29;20245;-93
2022/11/09 07:08:46;;;;;;;5.20;4.70;;;;;;;14.06;nan;99289.75;4790962;29;20220;-92
2022/11/09 07:11:18;;;;;;;6.38;5.75;;;;;;;14.02;nan;99281.25;4798103;29;20475;-92
2022/11/09 07:13:46;;;;;;;6.30;4.70;;;;;;;13.97;nan;99286.09;4795304;29;20237;-91
2022/11/09 07:16:16;;;;;;;5.70;5.25;;;;;;;13.91;nan;99298.00;4794818;29;20217;-93
2022/11/09 07:18:47;;;;;;;7.28;6.13;;;;;;;13.88;nan;99302.66;4794972;29;20238;-92
2022/11/09 07:21:13;;;;;;;5.67;5.07;;;;;;;13.86;nan;99301.97;4791873;29;20222;-92
2022/11/09 07:23:39;;;;;;;8.53;7.70;;;;;;;13.82;nan;99292.63;4795242;29;20287;-92
2022/11/09 07:26:05;;;;;;;7.20;5.82;;;;;;;13.72;nan;99292.56;4801004;29;20214;-91
2022/11/09 07:28:30;;;;;;;10.67;6.37;;;;;;;13.76;nan;99285.22;4789432;29;20210;-93
2022/11/09 07:30:57;;;;;;;8.47;6.57;;;;;;;13.77;nan;99293.03;4794976;29;20623;-92
2022/11/09 07:33:25;;;;;;;6.78;4.82;;;;;;;13.74;nan;99282.69;4794733;29;20979;-93
2022/11/09 07:35:54;;;;;;;13.43;9.18;;;;;;;13.76;nan;99287.84;4782254;29;20217;-92
2022/11/09 07:38:22;;;;;;;10.43;7.07;;;;;;;13.78;nan;99293.84;4780766;29;20246;-91
2022/11/09 07:40:48;;;;;;;5.93;5.33;;;;;;;13.81;nan;99297.06;4796700;29;20277;-91
2022/11/09 07:43:16;;;;;;;5.33;3.97;;;;;;;13.83;nan;99292.50;4793180;29;20284;-90
2022/11/09 07:45:48;;;;;;;4.53;4.07;;;;;;;13.87;nan;99296.56;4777703;29;20568;-90
2022/11/09 07:48:14;;;;;;;8.82;6.85;;;;;;;13.90;nan;99285.75;4798020;29;20210;-91
2022/11/09 07:50:40;;;;;;;8.63;7.63;;;;;;;13.94;nan;99279.25;4794323;29;20209;-92
2022/11/09 07:53:13;;;;;;;6.93;5.00;;;;;;;14.00;nan;99256.78;4789160;29;20234;-90
2022/11/09 07:55:50;;;;;;;7.07;5.20;;;;;;;14.05;nan;99264.34;4787535;29;20210;-90
2022/11/09 07:58:16;;;;;;;5.20;4.70;;;;;;;14.10;nan;99267.44;4792245;29;20233;-90
2022/11/09 08:00:42;;;;;;;4.70;4.30;;;;;;;14.15;nan;99270.53;4788700;29;20213;-92
2022/11/09 08:03:08;;;;;;;5.53;3.90;;;;;;;14.21;nan;99270.00;4789030;29;20202;-91
2022/11/09 08:05:34;;;;;;;4.40;3.63;;;;;;;14.28;nan;99281.69;4789201;29;20302;-92
2022/11/09 08:08:04;;;;;;;4.30;4.00;;;;;;;14.35;nan;99272.31;4813144;29;20740;-90
2022/11/09 08:10:33;;;;;;;5.30;3.90;;;;;;;14.42;nan;99288.50;4803424;29;20210;-91
2022/11/09 08:13:08;;;;;;;3.90;3.50;;;;;;;14.50;nan;99293.09;4792442;29;20236;-91
2022/11/09 08:15:53;;;;;;;;;;;;;;;;;;;;;
2022/11/09 08:18:29;;;;;;;6.30;3.83;;;;;;;14.56;nan;99295.28;4805027;29;20232;-91
2022/11/09 08:21:04;;;;;;;10.77;4.22;;;;;;;14.58;nan;99299.47;4804873;29;20737;-90
2022/11/09 08:23:29;;;;;;;3.60;3.30;;;;;;;14.64;nan;99297.28;4802799;29;20220;-90
2022/11/09 08:26:03;;;;;;;4.28;3.47;;;;;;;14.69;nan;99295.03;4792445;29;20301;-90
2022/11/09 08:28:42;;;;;;;5.57;4.15;;;;;;;14.74;nan;99292.84;4795564;29;20208;-90
2022/11/09 08:31:08;;;;;;;4.47;4.07;;;;;;;14.81;nan;99288.72;4779098;29;20257;-91
2022/11/09 08:33:38;;;;;;;6.80;4.70;;;;;;;14.88;nan;99283.72;4791487;29;20210;-90
2022/11/09 08:36:12;;;;;;;4.75;3.50;;;;;;;14.94;nan;99286.69;4800323;29;20209;-90
2022/11/09 08:38:38;;;;;;;5.28;4.35;;;;;;;14.96;nan;99278.59;4796435;29;20260;-90
2022/11/09 08:41:04;;;;;;;5.80;4.65;;;;;;;15.01;nan;99268.47;4794303;29;20240;-92
2022/11/09 08:43:30;;;;;;;5.00;4.32;;;;;;;15.15;nan;99269.88;4791473;29;20206;-91
2022/11/09 08:45:55;;;;;;;5.30;4.80;;;;;;;15.57;nan;99267.91;4793288;29;20291;-92
2022/11/09 08:48:21;;;;;;;4.87;4.37;;;;;;;16.10;nan;99267.50;4792634;29;20227;-92
2022/11/09 08:50:54;;;;;;;3.70;3.40;;;;;;;16.48;nan;99264.94;4778821;29;20338;-91
2022/11/09 08:53:21;;;;;;;4.22;3.17;;;;;;;16.73;nan;99266.09;4791176;29;20685;-90
2022/11/09 08:55:49;;;;;;;6.93;4.53;;;;;;;16.78;nan;99264.72;4789033;29;20224;-90
2022/11/09 08:58:17;;;;;;;4.30;2.80;;;;;;;16.73;nan;99268.75;4804979;29;20224;-90
2022/11/09 09:00:46;;;;;;;5.47;3.75;;;;;;;16.62;nan;99272.41;4793171;29;20262;-91
2022/11/09 09:03:15;;;;;;;5.70;3.83;;;;;;;16.49;nan;99278.03;4792485;29;20699;-90
2022/11/09 09:05:41;;;;;;;5.28;4.78;;;;;;;16.42;nan;99276.09;4798334;29;20697;-88
2022/11/09 09:08:09;;;;;;;4.63;4.20;;;;;;;16.31;nan;99280.59;4809373;29;20217;-89
2022/11/09 09:10:39;;;;;;;4.65;4.25;;;;;;;16.26;nan;99277.53;4742054;29;20502;-88
2022/11/09 09:13:05;;;;;;;5.38;4.88;;;;;;;16.26;nan;99276.72;4713417;30;20254;-91
2022/11/09 09:15:33;;;;;;;5.30;4.32;;;;;;;16.28;nan;99272.06;4732893;30;20245;-92
2022/11/09 09:18:00;;;;;;;5.50;4.97;;;;;;;16.32;nan;99271.66;4748993;30;20300;-91
2022/11/09 09:20:33;;;;;;;4.35;3.95;;;;;;;16.36;nan;99278.38;4742101;30;20300;-91
2022/11/09 09:22:59;;;;;;;8.00;3.88;;;;;;;16.43;nan;99272.47;4728782;30;20217;-90
2022/11/09 09:25:27;;;;;;;6.22;3.22;;;;;;;16.48;nan;99271.06;4742647;30;20394;-91
2022/11/09 09:27:56;;;;;;;4.30;3.40;;;;;;;16.53;nan;99278.59;4742199;30;20287;-90
2022/11/09 09:30:31;;;;;;;8.35;4.72;;;;;;;16.57;nan;99282.63;4743744;30;20713;-91
2022/11/09 09:32:59;;;;;;;10.20;7.07;;;;;;;16.59;nan;99278.84;4733906;30;20237;-91
2022/11/09 09:35:37;;;;;;;10.30;8.23;;;;;;;16.61;nan;99276.06;4742752;30;20297;-90
2022/11/09 09:38:13;;;;;;;;;;;;;;;;;;;;;
2022/11/09 09:41:05;;;;;;;16.50;9.48;;;;;;;16.63;nan;99281.22;4739349;30;20232;-92
2022/11/09 09:43:39;;;;;;;12.50;6.75;;;;;;;16.62;nan;99282.19;4738254;30;20253;-90
2022/11/09 09:46:21;;;;;;;3.83;3.30;;;;;;;16.62;nan;99290.16;4742234;30;20224;-91
2022/11/09 09:48:56;;;;;;;3.70;2.67;;;;;;;16.59;nan;99286.81;4739905;30;20241;-91
2022/11/09 09:51:34;;;;;;;3.25;2.30;;;;;;;16.57;nan;99288.75;4741122;30;20212;-92
2022/11/09 09:54:22;;;;;;;2.67;2.45;;;;;;;16.56;nan;99288.91;4737812;30;20242;-93
2022/11/09 09:56:51;;;;;;;3.10;1.88;;;;;;;16.54;nan;99290.88;4733301;30;20234;-92
2022/11/09 09:59:32;;;;;;;2.25;1.85;;;;;;;16.51;nan;99297.28;4745188;30;20601;-91
2022/11/09 10:02:05;;;;;;;4.13;2.50;;;;;;;16.49;nan;99304.53;4738417;30;20213;-92
2022/11/09 10:04:40;;;;;;;3.55;2.60;;;;;;;16.49;nan;99309.84;4739565;30;20246;-92
2022/11/09 10:07:19;;;;;;;3.25;2.50;;;;;;;16.49;nan;99306.38;4745161;30;20231;-92
2022/11/09 10:09:54;;;;;;;4.20;3.28;;;;;;;16.49;nan;99304.53;4736341;30;21348;-92
2022/11/09 10:12:44;;;;;;;5.50;2.83;;;;;;;16.49;nan;99299.25;4735127;30;20213;-92
2022/11/09 10:15:38;;;;;;;6.05;2.92;;;;;;;16.51;nan;99304.41;4735200;30;20573;-91
2022/11/09 10:18:16;;;;;;;1.77;1.67;;;;;;;16.53;nan;99305.13;4737216;30;20226;-93
2022/11/09 10:20:47;;;;;;;4.13;2.25;;;;;;;16.53;nan;99308.59;4735697;30;20244;-91
2022/11/09 10:23:28;;;;;;;1.77;1.67;;;;;;;16.54;nan;99304.94;4734382;30;20307;-93
2022/11/09 10:26:09;;;;;;;4.45;2.63;;;;;;;16.55;nan;99300.47;4734846;30;20261;-92
2022/11/09 10:28:38;;;;;;;2.50;1.65;;;;;;;16.55;nan;99300.47;4718519;30;20229;-93
2022/11/09 10:31:20;;;;;;;2.50;1.67;;;;;;;16.54;nan;99296.16;4737863;30;20218;-92
2022/11/09 10:33:53;;;;;;;4.75;1.75;;;;;;;16.53;nan;99305.13;4738757;30;20302;-93
2022/11/09 10:36:31;;;;;;;4.03;1.55;;;;;;;16.50;nan;99292.97;4739998;30;20217;-91
2022/11/09 10:39:00;;;;;;;2.47;1.20;;;;;;;16.49;nan;99287.81;4739955;30;20256;-92
2022/11/09 10:41:50;;;;;;;1.33;1.23;;;;;;;16.51;nan;99292.00;4740372;30;20234;-91
2022/11/09 10:44:35;;;;;;;1.33;1.20;;;;;;;16.54;nan;99296.16;4739669;30;20215;-92
2022/11/09 10:47:21;;;;;;;1.33;1.00;;;;;;;16.54;nan;99290.88;4739834;30;20633;-92
2022/11/09 10:50:35;;;;;;;2.08;1.10;;;;;;;16.56;nan;99299.53;4740084;30;20300;-91
2022/11/09 10:53:28;;;;;;;3.15;1.00;;;;;;;16.51;nan;99292.00;4738202;30;21045;-91
2022/11/09 10:56:37;;;;;;;1.77;1.20;;;;;;;16.50;nan;99289.47;4740749;30;20254;-92
2022/11/09 10:59:38;;;;;;;2.30;1.38;;;;;;;16.48;nan;99286.97;4741984;30;20308;-91
2022/11/09 11:02:43;;;;;;;1.40;1.00;;;;;;;16.47;nan;99280.00;4740984;30;20266;-91
2022/11/09 11:05:38;;;;;;;2.35;1.70;;;;;;;16.46;nan;99288.94;4746300;30;20712;-90
2022/11/09 11:08:37;;;;;;;1.60;1.17;;;;;;;16.46;nan;99291.56;4728284;30;20243;-92
2022/11/09 11:11:23;;;;;;;3.63;1.10;;;;;;;16.45;nan;99289.91;4739440;30;20290;-91
2022/11/09 11:14:30;;;;;;;1.65;1.40;;;;;;;16.43;nan;99288.38;4746215;30;20257;-91
2022/11/09 11:18:02;;;;;;;1.40;1.23;;;;;;;16.38;nan;99286.16;4736180;30;20592;-91
2022/11/09 11:21:15;;;;;;;1.90;1.00;;;;;;;16.38;nan;99291.47;4725332;30;20253;-91
2022/11/09 11:24:38;;;;;;;1.00;0.90;;;;;;;16.40;nan;99288.69;4736864;30;20251;-91
2022/11/09 11:27:25;;;;;;;1.40;1.13;;;;;;;16.40;nan;99280.72;4736573;30;20458;-92
2022/11/09 11:30:21;;;;;;;2.50;1.45;;;;;;;16.41;nan;99282.38;4736076;30;21087;-92
2022/11/09 11:33:17;;;;;;;1.25;1.15;;;;;;;16.42;nan;99276.94;4736706;30;20494;-91
2022/11/09 11:36:24;;;;;;;5.90;2.00;;;;;;;16.44;nan;99277.63;4736372;30;20255;-91
2022/11/09 11:39:19;;;;;;;3.10;2.15;;;;;;;16.44;nan;99269.66;4738399;30;21325;-92
2022/11/09 11:42:28;;;;;;;5.50;2.15;;;;;;;16.44;nan;99274.97;4736697;30;20242;-91
2022/11/09 11:45:33;;;;;;;;;;;;;;;;;;;;;
2022/11/09 11:48:27;;;;;;;4.03;3.72;;;;;;;16.46;nan;99267.72;4735605;30;20226;-91
2022/11/09 11:51:32;;;;;;;3.67;2.70;;;;;;;16.48;nan;99264.94;4736206;30;20223;-91
2022/11/09 11:54:29;;;;;;;4.30;2.67;;;;;;;16.50;nan;99265.59;4739281;30;21086;-91
2022/11/09 11:57:17;;;;;;;3.03;2.30;;;;;;;16.53;nan;99260.03;4736439;30;20222;-92
2022/11/09 12:00:14;;;;;;;2.53;2.33;;;;;;;16.56;nan;99273.00;4738894;30;20242;-91
2022/11/09 12:03:20;;;;;;;2.88;2.50;;;;;;;16.58;nan;99266.59;4737675;30;20673;-92
2022/11/09 12:06:07;;;;;;;2.47;2.35;;;;;;;16.58;nan;99261.28;4738384;30;20227;-92
2022/11/09 12:09:32;;;;;;;6.35;2.80;;;;;;;16.60;nan;99269.91;4745656;30;20251;-91
2022/11/09 12:12:31;;;;;;;3.30;2.70;;;;;;;16.62;nan;99267.13;4748934;30;20220;-92
2022/11/09 12:15:33;;;;;;;5.18;3.25;;;;;;;16.64;nan;99267.81;4742257;30;20227;-92
2022/11/09 12:18:38;;;;;;;3.90;3.60;;;;;;;16.69;nan;99262.06;4733767;30;20279;-91
2022/11/09 12:21:44;;;;;;;;;;;;;;;;;;;;;
2022/11/09 12:24:54;;;;;;;3.08;2.60;;;;;;;16.81;nan;99269.72;4742775;30;20256;-91
2022/11/09 12:27:59;;;;;;;2.45;2.25;;;;;;;16.85;nan;99265.00;4742348;30;20254;-90
2022/11/09 12:31:03;;;;;;;2.90;2.58;;;;;;;16.87;nan;99270.13;4740840;30;20227;-92
2022/11/09 12:33:57;;;;;;;3.75;2.55;;;;;;;16.86;nan;99271.13;4740122;30;20239;-91
2022/11/09 12:36:56;;;;;;;3.17;2.08;;;;;;;16.83;nan;99272.25;4745896;30;20957;-90
2022/11/09 12:39:52;;;;;;;2.30;2.10;;;;;;;16.78;nan;99271.84;4746783;30;21299;-91
2022/11/09 12:42:42;;;;;;;3.17;2.60;;;;;;;16.73;nan;99279.38;4744132;30;21105;-91
2022/11/09 12:45:33;;;;;;;3.35;2.70;;;;;;;16.67;nan;99278.13;4745925;30;20226;-90
2022/11/09 12:48:40;;;;;;;;;;;;;;;;;;;;;
2022/11/09 12:51:28;;;;;;;6.88;3.22;;;;;;;16.55;nan;99282.78;4741012;30;20247;-90
2022/11/09 12:54:37;;;;;;;1.88;1.77;;;;;;;16.48;nan;99286.97;4742280;30;20246;-92
2022/11/09 12:57:26;;;;;;;4.20;2.70;;;;;;;16.43;nan;99283.09;4742797;30;20221;-91
2022/11/09 13:00:33;;;;;;;4.57;2.92;;;;;;;16.37;nan;99281.84;4741615;30;20289;-91
2022/11/09 13:03:41;;;;;;;3.95;2.20;;;;;;;16.32;nan;99290.22;4741428;30;20635;-90
2022/11/09 13:06:42;;;;;;;;;;;;;;;;;;;;;
2022/11/09 13:09:27;;;;;;;4.18;2.75;;;;;;;16.16;nan;99297.91;4740478;30;20299;-92
2022/11/09 13:12:29;;;;;;;2.53;1.20;;;;;;;16.05;nan;99298.06;4741434;30;20218;-89
2022/11/09 13:15:23;;;;;;;2.28;1.60;;;;;;;15.96;nan;99305.03;4744314;30;20249;-89
2022/11/09 13:18:24;;;;;;;3.30;2.15;;;;;;;15.89;nan;99306.56;4749906;30;20223;-91
2022/11/09 13:21:23;;;;;;;2.33;1.40;;;;;;;15.83;nan;99304.47;4746075;30;20231;-91
2022/11/09 13:24:30;;;;;;;1.88;1.23;;;;;;;15.79;nan;99301.25;4748746;30;20349;-93
2022/11/09 13:27:38;;;;;;;1.30;1.20;;;;;;;15.76;nan;99301.53;4748465;30;20709;-92
2022/11/09 13:30:27;;;;;;;3.35;1.40;;;;;;;15.74;nan;99302.63;4743276;30;20226;-92
2022/11/09 13:33:14;;;;;;;2.85;1.48;;;;;;;15.70;nan;99317.97;4745389;30;20571;-93
2022/11/09 13:36:09;;;;;;;1.85;1.40;;;;;;;15.65;nan;99314.88;4746766;30;20805;-93
2022/11/09 13:39:26;;;;;;;2.78;1.60;;;;;;;15.58;nan;99317.25;4747406;30;20285;-92
2022/11/09 13:42:35;;;;;;;2.72;1.52;;;;;;;15.53;nan;99321.25;4744988;30;20260;-91
2022/11/09 13:45:27;;;;;;;1.73;1.40;;;;;;;15.52;nan;99324.88;4754507;30;20812;-93
2022/11/09 13:48:43;;;;;;;1.65;1.42;;;;;;;15.48;nan;99326.97;4748821;30;20221;-92
2022/11/09 13:51:54;;;;;;;5.10;3.92;;;;;;;15.46;nan;99321.78;4755829;30;20274;-92
2022/11/09 13:54:55;;;;;;;3.03;1.58;;;;;;;15.47;nan;99334.06;4745637;30;20261;-93
2022/11/09 13:57:44;;;;;;;3.72;2.10;;;;;;;15.45;nan;99336.00;4743950;30;20230;-93
2022/11/09 14:00:39;;;;;;;;;;;;;;;;;;;;;
2022/11/09 14:03:30;;;;;;;3.40;3.10;;;;;;;15.43;nan;99347.69;4741354;30;20472;-92
2022/11/09 14:06:17;;;;;;;3.92;2.75;;;;;;;15.43;nan;99347.69;4743282;30;20226;-91
2022/11/09 14:09:02;;;;;;;2.17;1.98;;;;;;;15.39;nan;99352.44;4744661;30;20749;-92
2022/11/09 14:12:15;;;;;;;2.72;2.05;;;;;;;15.34;nan;99364.38;4762818;30;20234;-93
2022/11/09 14:15:19;;;;;;;2.55;2.22;;;;;;;15.31;nan;99368.16;4744520;30;20250;-92
2022/11/09 14:18:14;;;;;;;3.90;3.50;;;;;;;15.26;nan;99381.78;4744703;30;20230;-92
2022/11/09 14:22:14;;;;;;;3.78;3.13;;;;;;;15.24;nan;99381.06;4753800;30;20266;-91
2022/11/09 14:24:56;;;;;;;4.60;4.18;;;;;;;15.21;nan;99383.97;4744053;30;20262;-92
2022/11/09 14:27:57;;;;;;;9.98;7.45;;;;;;;15.22;nan;99382.16;4741704;30;20774;-93
2022/11/09 14:32:10;;;;;;;;;;;;;;;;;;;;;
2022/11/09 14:35:01;;;;;;;;;;;;;;;;;;;;;
2022/11/09 14:37:56;;;;;;;7.55;6.57;;;;;;;15.21;nan;99389.28;4726098;30;20658;-89
2022/11/09 14:40:55;;;;;;;2.38;2.17;;;;;;;15.19;nan;99388.56;4753184;30;20246;-92
2022/11/09 14:43:52;;;;;;;4.18;3.78;;;;;;;15.16;nan;99388.00;4754349;30;20778;-92
2022/11/09 14:46:37;;;;;;;3.70;3.40;;;;;;;15.13;nan;99389.09;4741977;30;21046;-92
2022/11/09 14:49:32;;;;;;;6.32;4.40;;;;;;;15.12;nan;99392.72;4752335;30;20230;-93
2022/11/09 15:31:00;;;;;;;2.78;2.28;;;;;;;14.84;nan;99412.72;5088707;24;20818;-91
2022/11/09 15:33:51;;;;;;;2.83;2.35;;;;;;;14.81;nan;99405.88;4772071;29;20263;-91
